Time;durP1;ratioP1;P1;durP2;ratioP2;P2;SDS_P1;SDS_P2;PMS_P1;PMS_P2;Temp;Humidity;BMP_temperature;BMP_pressure;BME280_temperature;BME280_humidity;BME280_pressure;Samples;Min_cycle;Max_cycle;Signal;HPM_P1;HPM_P2
2021/10/27 00:00:55;;;;;;;12.43;7.03;;;;;;;4.18;100.00;99736.63;5041898;28;20022;-73
2021/10/27 00:03:20;;;;;;;11.13;6.75;;;;;;;4.16;100.00;99735.06;5034270;28;20021;-73
2021/10/27 00:05:46;;;;;;;14.02;6.22;;;;;;;4.12;100.00;99737.19;5045662;28;20033;-73
2021/10/27 00:08:12;;;;;;;9.68;5.97;;;;;;;4.06;100.00;99734.22;5018197;28;20056;-73
2021/10/27 00:10:37;;;;;;;10.27;6.25;;;;;;;3.93;100.00;99719.28;5039644;28;20479;-73
2021/10/27 00:13:03;;;;;;;13.95;6.60;;;;;;;4.05;100.00;99736.06;5054558;28;20037;-74
2021/10/27 00:15:28;;;;;;;11.30;6.10;;;;;;;3.90;100.00;99707.97;5017564;28;20040;-73
2021/10/27 00:17:54;;;;;;;12.88;6.30;;;;;;;3.93;100.00;99707.72;5032715;28;20051;-74
2021/10/27 00:20:19;;;;;;;15.68;6.07;;;;;;;3.92;100.00;99727.44;5033607;28;20088;-73
2021/10/27 00:22:45;;;;;;;12.18;6.60;;;;;;;3.91;100.00;99733.78;5035519;28;20067;-74
2021/10/27 00:25:11;;;;;;;11.52;6.40;;;;;;;3.79;100.00;99724.16;5034178;28;20029;-73
2021/10/27 00:27:37;;;;;;;8.77;5.38;;;;;;;3.77;100.00;99724.28;5033791;28;20036;-74
2021/10/27 00:30:03;;;;;;;10.75;5.85;;;;;;;3.68;100.00;99725.13;5032645;28;20556;-73
2021/10/27 00:32:30;;;;;;;7.50;5.03;;;;;;;3.65;100.00;99730.75;5032366;28;20056;-73
2021/10/27 00:34:55;;;;;;;9.65;5.90;;;;;;;3.52;100.00;99712.28;5032102;28;20040;-74
2021/10/27 00:37:20;;;;;;;7.32;4.93;;;;;;;3.60;100.00;99728.47;5032045;28;20029;-73
2021/10/27 00:39:47;;;;;;;7.03;5.05;;;;;;;3.61;100.00;99730.16;5051511;28;20447;-74
2021/10/27 00:42:13;;;;;;;7.32;5.03;;;;;;;3.51;100.00;99713.22;5052186;28;20632;-73
2021/10/27 00:44:41;;;;;;;6.97;4.55;;;;;;;3.37;100.00;99693.06;5030552;28;20026;-74
2021/10/27 00:47:09;;;;;;;7.38;5.22;;;;;;;3.51;100.00;99726.63;5032305;28;20077;-73
2021/10/27 00:49:36;;;;;;;6.85;4.63;;;;;;;3.51;100.00;99734.63;5020100;28;20048;-73
2021/10/27 00:52:04;;;;;;;7.18;4.72;;;;;;;3.52;100.00;99739.03;5033023;28;20025;-73
2021/10/27 00:54:30;;;;;;;6.63;4.70;;;;;;;3.48;100.00;99745.63;5032217;28;20048;-73
2021/10/27 00:56:57;;;;;;;5.32;4.15;;;;;;;3.31;100.00;99720.34;5031972;28;20036;-73
2021/10/27 00:59:24;;;;;;;6.00;4.40;;;;;;;3.52;100.00;99747.06;5031910;28;20034;-73
2021/10/27 01:01:51;;;;;;;5.80;4.30;;;;;;;3.55;100.00;99749.44;5030496;28;20025;-73
2021/10/27 01:04:17;;;;;;;7.30;4.50;;;;;;;3.72;100.00;99747.94;5031998;28;20029;-74
2021/10/27 01:06:42;;;;;;;9.63;5.60;;;;;;;3.67;100.00;99739.50;5047884;28;20021;-73
2021/10/27 01:09:08;;;;;;;7.45;4.88;;;;;;;3.60;100.00;99717.78;5032059;28;20030;-73
2021/10/27 01:11:34;;;;;;;9.43;4.90;;;;;;;3.72;100.00;99737.25;5032306;28;20037;-74
2021/10/27 01:14:00;;;;;;;9.38;5.43;;;;;;;3.61;100.00;99723.97;5032191;28;20026;-73
2021/10/27 01:16:25;;;;;;;8.23;4.65;;;;;;;3.57;100.00;99725.25;5030934;28;20037;-73
2021/10/27 01:18:53;;;;;;;8.30;5.10;;;;;;;3.62;100.00;99726.53;5031344;28;20029;-73
2021/10/27 01:21:24;;;;;;;7.68;5.10;;;;;;;3.84;100.00;99743.34;5029398;28;20475;-73
2021/10/27 01:23:50;;;;;;;7.68;4.95;;;;;;;3.60;100.00;99728.47;5018590;28;20730;-74
2021/10/27 01:26:15;;;;;;;9.95;5.25;;;;;;;3.91;100.00;99748.00;5031888;28;20036;-74
2021/10/27 01:28:42;;;;;;;9.40;5.82;;;;;;;3.92;100.00;99744.34;5034892;28;20390;-73
2021/10/27 01:31:09;;;;;;;9.75;5.15;;;;;;;3.97;100.00;99727.88;5037680;28;20097;-73
2021/10/27 01:33:35;;;;;;;9.98;4.88;;;;;;;3.95;100.00;99729.84;5039175;28;20121;-74
2021/10/27 01:36:00;;;;;;;11.38;5.47;;;;;;;4.04;100.00;99731.69;5035602;28;20052;-73
2021/10/27 01:38:26;;;;;;;9.70;5.28;;;;;;;3.89;100.00;99711.66;5037334;28;20029;-73
2021/10/27 01:40:51;;;;;;;10.93;5.72;;;;;;;3.67;100.00;99713.59;5035515;28;20063;-73
2021/10/27 01:43:17;;;;;;;7.18;5.05;;;;;;;3.90;100.00;99718.69;5035215;28;20023;-73
2021/10/27 01:45:43;;;;;;;8.38;5.03;;;;;;;4.00;100.00;99743.66;5035229;28;20043;-73
2021/10/27 01:48:30;;;;;;;12.85;5.50;;;;;;;3.97;100.00;99738.59;5036849;28;20032;-73
2021/10/27 01:50:56;;;;;;;9.10;5.70;;;;;;;4.01;100.00;99740.00;5034433;28;20025;-73
2021/10/27 01:53:21;;;;;;;12.13;6.30;;;;;;;4.04;100.00;99745.09;5031775;28;20083;-73
2021/10/27 01:55:46;;;;;;;10.38;6.13;;;;;;;3.84;100.00;99725.44;5027135;28;20136;-73
2021/10/27 01:58:12;;;;;;;9.10;5.78;;;;;;;3.73;100.00;99741.63;5034880;28;20112;-73
2021/10/27 02:00:37;;;;;;;7.55;5.00;;;;;;;3.53;100.00;99743.38;5034571;28;20071;-73
2021/10/27 02:03:02;;;;;;;9.15;5.30;;;;;;;3.39;100.00;99731.22;5034983;28;20098;-73
2021/10/27 02:05:28;;;;;;;7.30;4.68;;;;;;;3.32;100.00;99734.56;5034926;28;20014;-73
2021/10/27 02:07:53;;;;;;;10.00;5.65;;;;;;;3.24;100.00;99736.06;5034995;28;20057;-73
2021/10/27 02:10:18;;;;;;;8.73;5.68;;;;;;;3.21;100.00;99725.66;5045938;28;20032;-71
2021/10/27 02:12:44;;;;;;;8.63;5.57;;;;;;;3.27;100.00;99737.63;5059196;28;20128;-72
2021/10/27 02:15:11;;;;;;;9.48;5.47;;;;;;;3.29;100.00;99749.91;5058061;28;20025;-72
2021/10/27 02:17:37;;;;;;;9.30;5.55;;;;;;;3.17;100.00;99731.41;5064998;28;20025;-73
2021/10/27 02:20:04;;;;;;;8.48;5.18;;;;;;;3.22;100.00;99753.22;5057495;28;20281;-73
2021/10/27 02:22:29;;;;;;;8.88;5.18;;;;;;;3.34;100.00;99751.34;5057830;28;20024;-72
2021/10/27 02:24:55;;;;;;;10.88;5.53;;;;;;;3.16;100.00;99729.72;5059594;28;20037;-73
2021/10/27 02:27:20;;;;;;;9.00;5.28;;;;;;;3.14;100.00;99739.69;5038039;28;20060;-73
2021/10/27 02:29:45;;;;;;;8.68;5.95;;;;;;;3.24;100.00;99746.78;5019609;28;20059;-73
2021/10/27 02:32:11;;;;;;;14.20;6.50;;;;;;;3.37;100.00;99753.75;5030108;28;20018;-73
2021/10/27 02:34:36;;;;;;;13.68;5.93;;;;;;;3.45;100.00;99722.66;5035243;28;20029;-73
2021/10/27 02:37:03;;;;;;;15.00;7.20;;;;;;;3.60;100.00;99741.03;5034316;28;20029;-73
2021/10/27 02:39:29;;;;;;;15.05;7.18;;;;;;;3.45;100.00;99717.31;5043235;28;20494;-73
2021/10/27 02:41:54;;;;;;;20.88;6.88;;;;;;;3.67;100.00;99721.63;5033930;28;20049;-73
2021/10/27 02:44:19;;;;;;;15.55;7.25;;;;;;;3.81;100.00;99754.34;5035668;28;20060;-73
2021/10/27 02:46:45;;;;;;;16.52;6.85;;;;;;;3.73;100.00;99753.19;5053123;28;20017;-73
2021/10/27 02:49:11;;;;;;;17.08;8.00;;;;;;;3.71;100.00;99743.59;5043968;28;20151;-73
2021/10/27 02:51:36;;;;;;;17.50;7.43;;;;;;;3.76;100.00;99740.50;5028930;28;20029;-73
2021/10/27 02:54:01;;;;;;;14.02;7.70;;;;;;;3.79;100.00;99749.09;5014362;28;20557;-73
2021/10/27 02:56:27;;;;;;;14.13;6.97;;;;;;;3.79;100.00;99750.94;5021303;28;20487;-73
2021/10/27 02:58:52;;;;;;;15.93;7.35;;;;;;;3.81;100.00;99749.81;5024696;28;20091;-73
2021/10/27 03:01:17;;;;;;;11.63;6.55;;;;;;;3.87;100.00;99740.38;5031507;28;20518;-73
2021/10/27 03:03:43;;;;;;;12.60;7.60;;;;;;;3.90;100.00;99740.09;5045943;28;20368;-73
2021/10/27 03:06:08;;;;;;;13.45;7.00;;;;;;;3.84;100.00;99725.44;5032340;28;20506;-73
2021/10/27 03:08:34;;;;;;;13.70;6.72;;;;;;;3.81;100.00;99720.38;5033629;28;20025;-73
2021/10/27 03:10:59;;;;;;;13.18;6.60;;;;;;;3.76;100.00;99754.72;5018533;28;20383;-73
2021/10/27 03:13:25;;;;;;;11.23;6.22;;;;;;;3.58;100.00;99738.47;5035087;28;20025;-73
2021/10/27 03:15:50;;;;;;;11.38;6.25;;;;;;;3.52;100.00;99741.69;5051101;28;20040;-73
2021/10/27 03:18:16;;;;;;;12.23;6.22;;;;;;;3.39;100.00;99746.44;5039430;28;20033;-73
2021/10/27 03:20:41;;;;;;;12.18;6.40;;;;;;;3.38;100.00;99756.28;5029490;28;20673;-73
2021/10/27 03:23:07;;;;;;;10.07;6.13;;;;;;;3.28;100.00;99736.69;5067142;28;20104;-73
2021/10/27 03:25:33;;;;;;;12.23;6.35;;;;;;;3.24;100.00;99736.06;5052907;28;20037;-73
2021/10/27 03:27:59;;;;;;;11.63;5.90;;;;;;;3.28;100.00;99758.91;5049554;28;20044;-73
2021/10/27 03:30:25;;;;;;;12.63;5.72;;;;;;;3.17;100.00;99750.97;5033114;28;20387;-73
2021/10/27 03:32:51;;;;;;;10.45;5.38;;;;;;;3.02;100.00;99749.63;5030432;28;20033;-73
2021/10/27 03:35:16;;;;;;;11.45;5.75;;;;;;;3.03;100.00;99751.31;5048746;28;20056;-72
2021/10/27 03:37:41;;;;;;;10.20;6.18;;;;;;;2.97;100.00;99757.19;5023031;28;20479;-73
2021/10/27 03:40:08;;;;;;;12.20;6.90;;;;;;;2.94;100.00;99765.47;5021572;28;20387;-73
2021/10/27 03:42:33;;;;;;;9.75;5.53;;;;;;;2.91;100.00;99765.72;5049510;28;20037;-73
2021/10/27 03:44:58;;;;;;;9.75;5.65;;;;;;;2.80;100.00;99746.13;5033667;28;20562;-73
2021/10/27 03:47:24;;;;;;;11.20;6.60;;;;;;;2.88;100.00;99752.63;5032567;28;20034;-72
2021/10/27 03:49:49;;;;;;;11.88;6.20;;;;;;;2.89;100.00;99765.88;5023863;28;20108;-73
2021/10/27 03:52:15;;;;;;;11.38;6.15;;;;;;;2.80;100.00;99751.47;5031268;28;20384;-72
2021/10/27 03:54:41;;;;;;;13.93;7.45;;;;;;;2.85;100.00;99757.25;5049308;28;20033;-73
2021/10/27 03:57:06;;;;;;;12.23;6.65;;;;;;;2.90;100.00;99766.72;5052204;28;20548;-68
2021/10/27 03:59:31;;;;;;;13.50;6.72;;;;;;;2.85;100.00;99773.28;5021355;28;20375;-70
2021/10/27 04:01:57;;;;;;;16.42;6.95;;;;;;;2.82;100.00;99773.53;5019427;28;20024;-73
2021/10/27 04:04:22;;;;;;;12.57;7.00;;;;;;;2.84;100.00;99771.59;5033297;28;20287;-76
2021/10/27 04:06:48;;;;;;;11.23;6.35;;;;;;;2.91;100.00;99768.38;5045675;28;20025;-76
2021/10/27 04:09:13;;;;;;;11.65;6.53;;;;;;;3.08;100.00;99776.66;5052399;28;20398;-73
2021/10/27 04:11:39;;;;;;;12.65;6.47;;;;;;;3.03;100.00;99762.84;5031400;28;20450;-76
2021/10/27 04:14:05;;;;;;;16.75;6.82;;;;;;;3.13;100.00;99757.56;5032896;28;20483;-75
2021/10/27 04:16:30;;;;;;;16.55;7.90;;;;;;;3.25;100.00;99753.84;5032290;28;20083;-78
2021/10/27 04:18:56;;;;;;;13.57;7.70;;;;;;;3.39;100.00;99762.47;5032486;28;20399;-75
2021/10/27 04:21:21;;;;;;;17.40;7.57;;;;;;;3.59;100.00;99750.88;5032048;28;20483;-76
2021/10/27 04:23:47;;;;;;;12.85;6.35;;;;;;;3.68;100.00;99757.25;5047658;28;20037;-75
2021/10/27 04:26:12;;;;;;;10.40;6.50;;;;;;;3.56;100.00;99729.72;5032717;28;20064;-77
2021/10/27 04:28:37;;;;;;;15.88;7.43;;;;;;;3.65;100.00;99774.41;5031061;28;20035;-74
2021/10/27 04:31:03;;;;;;;13.13;6.93;;;;;;;3.66;100.00;99769.91;5028467;28;20080;-74
2021/10/27 04:33:29;;;;;;;15.63;8.02;;;;;;;3.57;100.00;99755.53;5047024;28;20036;-74
2021/10/27 04:35:54;;;;;;;10.82;6.78;;;;;;;3.74;100.00;99773.59;5030888;28;20059;-74
2021/10/27 04:38:21;;;;;;;12.73;6.60;;;;;;;3.76;100.00;99768.13;5032249;28;20021;-74
2021/10/27 04:40:46;;;;;;;11.95;6.25;;;;;;;3.78;100.00;99749.25;5031907;28;20022;-75
2021/10/27 04:43:12;;;;;;;11.63;6.78;;;;;;;3.86;100.00;99754.78;5023223;28;20610;-74
2021/10/27 04:45:38;;;;;;;10.52;6.68;;;;;;;3.92;100.00;99759.56;5032345;28;20368;-72
2021/10/27 04:48:04;;;;;;;11.43;7.18;;;;;;;3.86;100.00;99769.00;5022319;28;20033;-77
2021/10/27 04:50:30;;;;;;;13.40;6.85;;;;;;;3.81;100.00;99763.19;5034031;28;20108;-75
2021/10/27 04:52:56;;;;;;;11.65;7.22;;;;;;;3.84;100.00;99762.09;5052002;28;20459;-75
2021/10/27 04:55:21;;;;;;;13.40;6.80;;;;;;;3.79;100.00;99759.81;5043008;28;20059;-73
2021/10/27 04:57:47;;;;;;;13.02;6.72;;;;;;;3.84;100.00;99759.41;5038262;28;20056;-76
2021/10/27 05:00:13;;;;;;;10.60;6.65;;;;;;;3.76;100.00;99751.22;5023752;28;20365;-76
2021/10/27 05:02:38;;;;;;;11.00;6.60;;;;;;;3.82;100.00;99737.28;5035060;28;20441;-75
2021/10/27 05:05:05;;;;;;;9.68;6.53;;;;;;;3.91;100.00;99755.22;5030102;28;20079;-75
2021/10/27 05:07:31;;;;;;;14.18;7.95;;;;;;;4.00;100.00;99757.03;5023795;28;20360;-75
2021/10/27 05:09:57;;;;;;;11.82;7.00;;;;;;;3.98;100.00;99764.34;5032298;28;20036;-75
2021/10/27 05:12:22;;;;;;;12.13;7.10;;;;;;;3.97;100.00;99751.97;5032027;28;20032;-77
2021/10/27 05:14:48;;;;;;;12.20;7.47;;;;;;;4.08;100.00;99772.41;5035341;28;20532;-77
2021/10/27 05:17:15;;;;;;;11.25;7.50;;;;;;;4.01;100.00;99752.53;5038188;28;20029;-77
2021/10/27 05:19:42;;;;;;;14.18;7.78;;;;;;;4.06;100.00;99740.44;5036021;28;20030;-77
2021/10/27 05:22:09;;;;;;;11.63;7.13;;;;;;;4.21;100.00;99756.94;5051773;28;20645;-75
2021/10/27 05:24:35;;;;;;;15.25;8.23;;;;;;;4.31;100.00;99760.47;5031126;28;20022;-76
2021/10/27 05:27:00;;;;;;;11.93;7.85;;;;;;;4.20;100.00;99762.44;5038205;28;20045;-77
2021/10/27 05:29:26;;;;;;;13.52;8.30;;;;;;;4.14;100.00;99756.66;5036550;28;20519;-72
2021/10/27 05:31:52;;;;;;;17.08;8.20;;;;;;;4.10;100.00;99751.72;5027049;28;20037;-75
2021/10/27 05:34:17;;;;;;;12.13;6.55;;;;;;;4.13;100.00;99754.09;5035439;28;20091;-75
2021/10/27 05:36:43;;;;;;;9.20;5.80;;;;;;;4.08;100.00;99754.50;5035712;28;20499;-75
2021/10/27 05:39:11;;;;;;;10.20;6.05;;;;;;;4.20;100.00;99767.81;5035208;28;20099;-74
2021/10/27 05:41:36;;;;;;;8.00;5.15;;;;;;;4.24;100.00;99761.16;5047785;28;20120;-75
2021/10/27 05:44:02;;;;;;;8.82;4.80;;;;;;;4.24;100.00;99743.25;5033878;28;20064;-75
2021/10/27 05:46:28;;;;;;;7.40;5.03;;;;;;;4.16;100.00;99748.47;5045895;28;20048;-76
2021/10/27 05:49:05;;;;;;;8.18;4.97;;;;;;;4.05;100.00;99753.97;5045190;28;20112;-76
2021/10/27 05:57:09;;;;;;;9.43;5.28;;;;;;;3.78;100.00;99763.47;5037802;28;20598;-71
2021/10/27 05:59:34;;;;;;;15.00;5.43;;;;;;;3.45;100.00;99711.09;5024433;28;20105;-74
2021/10/27 06:02:00;;;;;;;11.82;5.55;;;;;;;3.71;100.00;99754.28;5033725;28;20052;-73
2021/10/27 06:04:26;;;;;;;13.50;6.38;;;;;;;3.60;100.00;99760.59;5033458;28;20075;-74
2021/10/27 06:06:51;;;;;;;11.30;6.18;;;;;;;3.66;100.00;99761.88;5033340;28;20430;-75
2021/10/27 06:09:17;;;;;;;9.93;6.13;;;;;;;3.57;100.00;99752.00;5053179;28;20033;-74
2021/10/27 06:11:44;;;;;;;12.23;6.45;;;;;;;3.79;100.00;99772.34;5032690;28;20018;-67
2021/10/27 06:14:09;;;;;;;9.77;5.95;;;;;;;3.86;100.00;99770.81;5032171;28;20029;-75
2021/10/27 06:16:35;;;;;;;11.55;6.20;;;;;;;3.93;100.00;99772.00;5033127;28;20025;-73
2021/10/27 06:19:00;;;;;;;9.45;6.05;;;;;;;4.10;100.00;99779.34;5017202;28;20033;-70
2021/10/27 06:21:26;;;;;;;9.40;6.15;;;;;;;4.29;100.00;99778.50;5031190;28;20029;-72
2021/10/27 06:23:52;;;;;;;16.17;6.95;;;;;;;4.45;100.00;99774.44;5031246;28;20401;-76
2021/10/27 06:26:22;;;;;;;12.00;6.20;;;;;;;4.74;100.00;99775.31;5015363;28;20484;-74
2021/10/27 06:29:06;;;;;;;12.95;7.00;;;;;;;5.02;100.00;99783.44;5030478;28;20026;-73
2021/10/27 06:31:45;;;;;;;12.32;6.32;;;;;;;5.23;100.00;99776.06;5019276;28;20451;-72
2021/10/27 06:34:34;;;;;;;10.07;5.22;;;;;;;5.78;100.00;99780.66;5025351;28;20101;-75
2021/10/27 06:47:52;;;;;;;9.60;5.32;;;;;;;9.47;79.62;99783.50;5024562;28;20029;-77
2021/10/27 06:50:19;;;;;;;5.22;3.50;;;;;;;9.68;75.40;99785.66;5038116;28;20359;-73
2021/10/27 06:52:45;;;;;;;6.68;3.75;;;;;;;10.36;73.08;99783.38;5037954;28;20030;-73
2021/10/27 06:55:10;;;;;;;7.80;4.22;;;;;;;11.31;71.42;99777.56;5037316;28;20017;-73
2021/10/27 06:57:36;;;;;;;8.98;4.70;;;;;;;11.98;68.75;99782.94;5030885;28;20036;-73
2021/10/27 07:00:15;;;;;;;8.02;4.88;;;;;;;12.21;65.10;99790.97;5030762;28;20445;-73
2021/10/27 07:03:08;;;;;;;7.13;4.63;;;;;;;11.65;64.99;99800.59;5024441;28;20105;-74
2021/10/27 07:16:49;;;;;;;7.78;5.05;;;;;;;14.71;56.60;99787.84;5032717;28;20032;-75
2021/10/27 07:19:14;;;;;;;7.90;4.85;;;;;;;14.59;54.94;99801.22;5033143;28;20025;-75
2021/10/27 07:21:40;;;;;;;7.30;4.72;;;;;;;14.25;56.38;99797.50;5034030;28;20394;-75
2021/10/27 07:24:05;;;;;;;7.38;5.25;;;;;;;14.34;55.78;99800.06;5049165;28;20116;-73
2021/10/27 07:26:31;;;;;;;13.18;4.75;;;;;;;14.85;55.70;99810.50;5030453;28;20664;-69
2021/10/27 07:28:56;;;;;;;7.07;4.72;;;;;;;15.72;53.38;99812.25;5029834;28;20479;-70
2021/10/27 07:31:23;;;;;;;6.30;4.28;;;;;;;15.77;52.91;99812.44;5034204;28;20025;-67
2021/10/27 07:34:11;;;;;;;9.07;3.88;;;;;;;15.80;52.10;99797.53;5030995;28;20087;-69
2021/10/27 07:42:03;;;;;;;7.32;5.20;;;;;;;15.74;53.39;99814.75;5020168;28;20060;-74
2021/10/27 07:44:29;;;;;;;14.27;7.57;;;;;;;15.81;53.72;99812.84;5015928;28;20030;-75
2021/10/27 07:46:55;;;;;;;11.95;6.00;;;;;;;16.86;51.05;99805.31;5017243;28;20029;-77
2021/10/27 07:49:20;;;;;;;11.35;6.07;;;;;;;16.41;51.33;99805.31;5033100;28;20068;-75
2021/10/27 07:51:46;;;;;;;10.45;5.63;;;;;;;16.88;50.67;99821.50;5031988;28;20064;-73
2021/10/27 07:54:12;;;;;;;7.93;5.65;;;;;;;17.42;47.96;99811.00;5028955;28;20025;-77
2021/10/27 07:56:38;;;;;;;9.35;5.55;;;;;;;17.40;49.99;99810.41;5050659;28;20025;-76
2021/10/27 07:59:03;;;;;;;8.52;4.85;;;;;;;18.28;47.15;99793.72;5057229;28;20033;-72
2021/10/27 08:01:29;;;;;;;9.85;5.40;;;;;;;18.28;46.68;99814.81;5058706;28;20025;-72
2021/10/27 08:03:56;;;;;;;7.78;5.65;;;;;;;17.67;46.18;99805.53;5057939;28;20464;-75
2021/10/27 08:06:21;;;;;;;8.55;5.68;;;;;;;17.30;48.55;99811.72;5045803;28;20032;-72
2021/10/27 08:08:48;;;;;;;7.95;5.47;;;;;;;17.64;48.57;99823.22;5048521;28;20033;-73
2021/10/27 08:11:14;;;;;;;7.20;4.95;;;;;;;17.97;48.25;99822.09;5042698;28;20060;-69
2021/10/27 08:13:40;;;;;;;8.07;5.28;;;;;;;17.39;48.71;99812.28;5017944;28;20076;-71
2021/10/27 08:16:05;;;;;;;8.98;5.35;;;;;;;18.46;46.61;99816.69;5031441;28;20108;-74
2021/10/27 08:18:30;;;;;;;7.90;4.65;;;;;;;19.01;45.92;99798.22;5043808;28;20029;-77
2021/10/27 08:20:56;;;;;;;7.00;5.43;;;;;;;19.55;44.70;99822.94;5042207;28;20565;-73
2021/10/27 08:23:26;;;;;;;7.97;5.32;;;;;;;19.14;45.83;99818.31;5027320;28;20074;-72
2021/10/27 08:25:55;;;;;;;8.85;5.80;;;;;;;18.76;46.91;99828.56;5026316;28;20026;-74
2021/10/27 08:28:28;;;;;;;10.35;5.43;;;;;;;19.66;45.45;99822.13;5024632;28;20018;-72
2021/10/27 08:31:06;;;;;;;11.52;5.07;;;;;;;20.68;42.62;99806.22;5040261;28;20026;-74
2021/10/27 08:33:43;;;;;;;6.47;5.00;;;;;;;20.03;43.61;99819.13;5030422;28;20017;-75
2021/10/27 08:36:09;;;;;;;10.23;5.18;;;;;;;20.33;43.74;99816.22;5023392;28;20489;-76
2021/10/27 08:38:34;;;;;;;7.90;5.05;;;;;;;20.24;43.50;99817.66;5031020;28;20048;-74
2021/10/27 08:41:01;;;;;;;8.45;4.68;;;;;;;20.69;43.41;99813.38;5035525;28;20036;-74
2021/10/27 08:43:28;;;;;;;6.30;4.45;;;;;;;20.46;44.19;99804.13;5032990;28;20100;-75
2021/10/27 08:45:55;;;;;;;9.07;4.63;;;;;;;20.25;44.00;99813.84;5026885;28;20025;-77
2021/10/27 08:48:21;;;;;;;7.15;4.18;;;;;;;20.76;44.04;99803.91;5048682;28;20068;-76
2021/10/27 08:50:48;;;;;;;6.75;4.47;;;;;;;20.56;44.57;99801.59;5040558;28;20478;-74
2021/10/27 08:53:15;;;;;;;6.50;3.85;;;;;;;20.76;43.60;99794.81;5057465;28;20034;-73
2021/10/27 08:55:45;;;;;;;6.28;4.20;;;;;;;21.63;42.32;99807.38;5056529;28;20005;-78
2021/10/27 08:58:16;;;;;;;6.43;3.95;;;;;;;20.97;43.73;99796.88;5045152;28;20085;-73
2021/10/27 09:00:51;;;;;;;7.05;4.25;;;;;;;21.89;42.00;99798.41;5043440;28;20017;-74
2021/10/27 09:06:08;;;;;;;6.25;3.90;;;;;;;22.78;40.78;99782.72;5045480;28;20378;-75
2021/10/27 09:15:01;;;;;;;7.68;4.45;;;;;;;21.02;43.34;99805.22;5044953;28;20083;-73
2021/10/27 09:34:30;;;;;;;7.30;4.75;;;;;;;22.37;41.08;99773.16;5028666;28;20072;-73
2021/10/27 09:37:17;;;;;;;11.68;4.40;;;;;;;22.33;41.46;99760.97;5030796;28;20021;-75
2021/10/27 09:46:16;;;;;;;8.57;4.55;;;;;;;23.08;40.53;99751.88;5022465;28;20068;-78
2021/10/27 10:04:02;;;;;;;9.75;4.72;;;;;;;21.99;41.96;99756.38;5035060;28;20028;-74
2021/10/27 10:05:20;;;;;;;8.75;4.68;;;;;;;22.67;41.27;99739.56;5036164;28;20032;-74
2021/10/27 10:07:46;;;;;;;7.28;4.47;;;;;;;21.85;42.60;99744.03;5034706;28;20423;-74
2021/10/27 10:10:13;;;;;;;7.93;5.22;;;;;;;21.43;43.16;99739.03;5036880;28;20037;-74
2021/10/27 10:12:41;;;;;;;10.45;5.22;;;;;;;22.43;41.97;99741.81;5024625;28;20044;-74
2021/10/27 10:15:07;;;;;;;7.00;4.35;;;;;;;22.52;41.59;99738.31;5032987;28;20126;-74
2021/10/27 10:17:35;;;;;;;8.52;4.47;;;;;;;22.83;40.68;99746.91;5034424;28;20487;-74
2021/10/27 10:20:01;;;;;;;6.50;4.20;;;;;;;22.92;41.20;99742.59;5031701;28;20112;-74
2021/10/27 10:22:37;;;;;;;7.43;4.30;;;;;;;22.27;41.59;99732.53;5035275;28;20057;-74
2021/10/27 10:25:17;;;;;;;7.30;4.05;;;;;;;22.60;41.00;99734.25;5034551;28;20538;-74
2021/10/27 10:27:48;;;;;;;7.55;3.65;;;;;;;23.34;39.88;99732.72;5023710;28;20033;-75
2021/10/27 10:30:30;;;;;;;6.97;4.47;;;;;;;23.29;40.42;99735.44;5030001;28;21354;-75
2021/10/27 10:33:08;;;;;;;7.88;4.18;;;;;;;24.58;37.43;99726.78;5031361;28;20046;-75
2021/10/27 10:36:07;;;;;;;6.85;4.05;;;;;;;24.27;38.33;99727.47;5030319;28;20026;-74
2021/10/27 10:44:02;;;;;;;7.68;2.95;;;;;;;23.08;39.80;99720.66;5026988;28;20398;-70
2021/10/27 10:58:09;;;;;;;4.05;2.65;;;;;;;24.58;37.17;99699.13;5030866;28;20040;-72
2021/10/27 11:03:55;;;;;;;4.78;2.65;;;;;;;24.44;37.85;99707.94;4984923;28;20038;-73
2021/10/27 11:37:42;;;;;;;2.42;1.60;;;;;;;24.82;36.40;99664.25;5037680;28;20027;-67
2021/10/27 11:40:24;;;;;;;2.83;1.80;;;;;;;25.69;34.77;99621.75;5028926;28;20040;-68
2021/10/27 11:42:57;;;;;;;2.25;1.50;;;;;;;26.38;33.71;99651.41;5010238;28;20026;-68
2021/10/27 11:48:01;;;;;;;3.35;1.58;;;;;;;26.75;33.30;99644.50;5028615;28;20030;-67
2021/10/27 11:50:36;;;;;;;4.32;2.08;;;;;;;27.58;32.85;99650.13;5024451;28;20479;-68
2021/10/27 11:53:05;;;;;;;4.63;1.63;;;;;;;27.09;32.63;99632.50;5020890;28;20036;-67
2021/10/27 11:55:32;;;;;;;4.00;1.85;;;;;;;28.08;31.28;99634.75;5028589;28;20111;-68
2021/10/27 11:57:58;;;;;;;3.75;1.70;;;;;;;27.18;32.21;99618.88;5026961;28;20029;-68
2021/10/27 12:03:13;;;;;;;3.45;2.20;;;;;;;26.70;33.48;99622.34;5029133;28;20021;-67
2021/10/27 12:14:15;;;;;;;3.00;1.50;;;;;;;28.62;30.60;99594.47;5030302;28;20034;-74
2021/10/27 12:19:25;;;;;;;3.08;1.70;;;;;;;27.32;32.38;99592.03;5031538;28;20498;-74
2021/10/27 12:22:19;;;;;;;2.40;1.63;;;;;;;28.14;31.12;99591.84;5032197;28;20029;-73
2021/10/27 12:24:53;;;;;;;5.28;1.52;;;;;;;27.86;30.81;99590.84;5035112;28;20031;-75
2021/10/27 12:27:22;;;;;;;3.33;1.80;;;;;;;28.40;30.17;99585.88;5032522;28;20025;-73
2021/10/27 12:29:53;;;;;;;3.30;1.75;;;;;;;28.03;31.54;99583.94;5029863;28;20022;-73
2021/10/27 12:32:18;;;;;;;2.10;1.58;;;;;;;27.56;30.80;99567.00;5047493;28;20531;-76
2021/10/27 12:34:51;;;;;;;4.05;1.80;;;;;;;27.64;31.99;99571.09;5032621;28;20065;-73
2021/10/27 12:37:25;;;;;;;2.25;1.27;;;;;;;27.56;30.91;99555.88;5029481;28;20502;-76
2021/10/27 12:39:51;;;;;;;2.70;1.30;;;;;;;28.73;29.32;99566.44;5031578;28;20032;-73
2021/10/27 12:42:16;;;;;;;1.70;0.70;;;;;;;27.38;29.47;99567.78;5026288;28;20215;-74
2021/10/27 12:44:50;;;;;;;1.65;0.70;;;;;;;27.58;29.97;99547.25;5030383;28;20115;-76
2021/10/27 12:47:28;;;;;;;1.35;0.73;;;;;;;28.02;29.84;99565.59;5028528;28;20028;-74
2021/10/27 12:50:12;;;;;;;0.80;0.50;;;;;;;27.66;28.94;99552.97;5027936;28;20025;-74
2021/10/27 12:52:51;;;;;;;0.70;0.40;;;;;;;27.50;29.57;99559.88;5029881;28;20434;-70
2021/10/27 12:55:46;;;;;;;1.08;0.50;;;;;;;27.36;29.68;99547.81;5026259;28;20471;-71
2021/10/27 12:58:18;;;;;;;0.63;0.40;;;;;;;26.63;31.00;99542.16;5029868;28;20025;-70
2021/10/27 13:05:59;;;;;;;1.65;0.40;;;;;;;26.44;30.75;99547.56;5040176;28;20029;-73
2021/10/27 13:11:10;;;;;;;2.97;0.40;;;;;;;25.59;32.17;99543.09;5037853;28;20033;-72
2021/10/27 13:18:58;;;;;;;;;;;;;;;24.07;35.55;99536.66;5046937;28;20049;-68
2021/10/27 13:31:51;;;;;;;0.95;0.60;;;;;;;25.45;33.16;99522.66;5032823;28;20041;-74
2021/10/27 13:34:17;;;;;;;3.13;0.60;;;;;;;26.13;32.34;99502.59;5039290;28;20017;-73
2021/10/27 13:36:42;;;;;;;1.35;0.40;;;;;;;25.09;34.02;99522.75;5028886;28;20966;-71
2021/10/27 13:39:08;;;;;;;1.45;0.50;;;;;;;26.22;31.61;99513.88;5021562;28;20036;-71
2021/10/27 13:41:35;;;;;;;0.63;0.32;;;;;;;25.56;32.77;99527.03;5031193;28;20025;-72
2021/10/27 13:44:24;;;;;;;1.10;0.40;;;;;;;25.86;32.21;99521.63;5033491;28;20037;-70
2021/10/27 13:57:54;;;;;;;1.27;0.40;;;;;;;24.82;34.11;99520.34;5003920;28;20065;-70
2021/10/27 14:11:42;;;;;;;2.00;0.63;;;;;;;22.66;38.58;99498.78;5029547;28;20025;-71
2021/10/27 14:13:55;;;;;;;0.80;0.50;;;;;;;22.63;38.85;99506.72;5027947;28;20046;-71
2021/10/27 15:21:17;;;;;;;3.00;1.20;;;;;;;18.12;53.94;99447.38;5032650;28;20147;-72
2021/10/27 15:31:40;;;;;;;2.67;1.35;;;;;;;17.54;57.63;99453.53;5031953;28;20547;-72
2021/10/27 15:42:22;;;;;;;2.97;1.50;;;;;;;16.47;61.11;99447.69;5027757;28;20087;-70
2021/10/27 15:53:00;;;;;;;8.73;2.30;;;;;;;14.11;71.46;99430.28;5026860;28;20658;-72
2021/10/27 15:55:26;;;;;;;7.50;2.33;;;;;;;13.75;72.67;99413.38;5023779;28;20033;-72
2021/10/27 15:57:52;;;;;;;4.50;2.22;;;;;;;13.79;74.44;99458.13;5020257;28;20025;-73
2021/10/27 16:00:21;;;;;;;4.93;2.53;;;;;;;13.66;75.27;99457.28;5019259;28;20064;-73
2021/10/27 16:02:46;;;;;;;;;;;;;;;13.46;76.08;99454.50;5031505;28;20030;-73
2021/10/27 16:05:12;;;;;;;5.97;2.55;;;;;;;13.14;77.44;99429.75;5032655;28;19919;-73
2021/10/27 16:07:39;;;;;;;6.07;2.55;;;;;;;13.06;78.33;99446.22;5014603;28;20085;-72
2021/10/27 16:10:16;;;;;;;7.03;2.22;;;;;;;12.89;79.66;99457.44;5041012;28;20006;-71
2021/10/27 16:12:43;;;;;;;7.25;2.85;;;;;;;12.70;80.70;99455.47;5037120;28;20037;-72
2021/10/27 16:15:14;;;;;;;7.10;3.10;;;;;;;12.62;80.76;99440.19;5021111;28;20108;-72
2021/10/27 16:17:41;;;;;;;8.70;2.83;;;;;;;12.52;82.38;99455.16;5032110;28;20075;-73